createdAt,value
2024-02-04T00:01:44.587Z,14.65
2024-02-04T00:04:47.544Z,14.65
2024-02-04T00:07:50.435Z,15.27
2024-02-04T00:10:53.318Z,15.95
2024-02-04T00:13:56.110Z,14.30
2024-02-04T00:17:00.534Z,12.68
2024-02-04T00:20:04.865Z,14.70
2024-02-04T00:23:07.655Z,16.38
2024-02-04T00:26:10.558Z,16.70
2024-02-04T00:29:13.441Z,12.98
2024-02-04T00:32:17.578Z,14.77
2024-02-04T00:35:20.913Z,14.90
2024-02-04T00:38:23.720Z,13.50
2024-02-04T00:41:26.946Z,15.05
2024-02-04T00:44:29.819Z,14.63
2024-02-04T00:47:33.957Z,13.35
2024-02-04T00:50:36.767Z,14.07
2024-02-04T00:53:39.788Z,14.43
2024-02-04T00:56:42.908Z,12.75
2024-02-04T00:59:45.733Z,14.65
2024-02-04T01:02:49.884Z,11.88
2024-02-04T01:05:53.190Z,13.55
2024-02-04T01:08:55.984Z,13.68
2024-02-04T01:11:59.047Z,12.43
2024-02-04T01:15:02.365Z,13.68
2024-02-04T01:18:06.875Z,13.77
2024-02-04T01:21:10.563Z,14.00
2024-02-04T01:24:13.358Z,13.60
2024-02-04T01:27:16.135Z,12.23
2024-02-04T01:30:19.005Z,14.60
2024-02-04T01:33:23.238Z,13.43
2024-02-04T01:36:26.655Z,10.55
2024-02-04T01:39:29.494Z,13.40
2024-02-04T01:42:32.379Z,12.93
2024-02-04T01:45:35.222Z,12.63
2024-02-04T01:48:40.043Z,10.18
2024-02-04T01:51:43.541Z,11.82
2024-02-04T01:54:46.904Z,11.52
2024-02-04T01:57:50.094Z,13.30
2024-02-04T02:00:53.989Z,11.65
2024-02-04T02:03:58.397Z,12.15
2024-02-04T02:07:02.069Z,11.38
2024-02-04T02:10:07.170Z,10.20
2024-02-04T02:13:16.825Z,11.70
2024-02-04T02:16:23.689Z,10.32
2024-02-04T02:19:42.696Z,11.63
2024-02-04T02:22:51.297Z,11.57
2024-02-04T02:25:55.862Z,11.13
2024-02-04T02:28:58.683Z,11.35
2024-02-04T02:32:04.377Z,9.38
2024-02-04T02:35:07.665Z,10.27
2024-02-04T02:38:17.299Z,10.70
2024-02-04T02:41:23.610Z,11.73
2024-02-04T02:44:27.663Z,10.23
2024-02-04T02:47:31.568Z,8.85
2024-02-04T02:50:34.474Z,9.63
2024-02-04T02:53:37.261Z,11.43
2024-02-04T02:56:41.504Z,10.85
2024-02-04T02:59:44.394Z,10.00
2024-02-04T03:02:47.175Z,10.15
2024-02-04T03:05:50.051Z,11.63
2024-02-04T03:08:53.212Z,11.10
2024-02-04T03:11:57.342Z,11.35
2024-02-04T03:15:00.400Z,11.15
2024-02-04T03:18:03.379Z,10.00
2024-02-04T03:21:06.731Z,10.88
2024-02-04T03:24:09.665Z,9.20
2024-02-04T03:27:14.177Z,10.02
2024-02-04T03:30:17.563Z,9.80
2024-02-04T03:33:20.510Z,8.98
2024-02-04T03:36:26.481Z,9.65
2024-02-04T03:39:29.585Z,9.05
2024-02-04T03:42:33.855Z,9.52
2024-02-04T03:45:38.412Z,10.55
2024-02-04T03:48:41.346Z,8.68
2024-02-04T03:51:44.297Z,9.73
2024-02-04T03:54:47.163Z,8.07
2024-02-04T03:57:51.467Z,11.90
2024-02-04T04:00:54.371Z,10.70
2024-02-04T04:03:57.253Z,8.82
2024-02-04T04:07:00.218Z,11.38
2024-02-04T04:10:03.184Z,9.10
2024-02-04T04:13:07.466Z,8.38
2024-02-04T04:16:10.321Z,8.77
2024-02-04T04:19:13.283Z,8.48
2024-02-04T04:22:16.189Z,10.45
2024-02-04T04:25:19.084Z,7.43
2024-02-04T04:28:23.271Z,9.13
2024-02-04T04:31:26.062Z,8.20
2024-02-04T04:34:28.899Z,8.77
2024-02-04T04:37:31.688Z,9.20
2024-02-04T04:40:34.463Z,9.35
2024-02-04T04:43:40.268Z,8.93
2024-02-04T04:46:43.818Z,6.75
2024-02-04T04:49:46.712Z,7.25
2024-02-04T04:52:49.592Z,8.55
2024-02-04T04:55:52.375Z,7.00
2024-02-04T04:58:56.591Z,6.45
2024-02-04T05:01:59.460Z,8.38
2024-02-04T05:05:02.390Z,9.52
2024-02-04T05:08:06.267Z,7.40
2024-02-04T05:11:09.098Z,7.75
2024-02-04T05:14:13.284Z,8.43
2024-02-04T05:17:16.073Z,6.82
2024-02-04T05:20:18.860Z,7.25
2024-02-04T05:23:21.647Z,6.32
2024-02-04T05:26:24.509Z,6.88
2024-02-04T05:29:28.747Z,7.40
2024-02-04T05:32:31.565Z,6.95
2024-02-04T05:35:34.441Z,8.02
2024-02-04T05:38:37.280Z,7.25
2024-02-04T05:41:40.182Z,6.25
2024-02-04T05:44:44.309Z,6.18
2024-02-04T05:47:47.192Z,6.90
2024-02-04T05:50:50.101Z,6.78
2024-02-04T05:53:52.914Z,6.70
2024-02-04T05:56:55.733Z,6.38
2024-02-04T06:00:00.586Z,7.13
2024-02-04T06:03:03.559Z,7.70
2024-02-04T06:06:06.836Z,7.00
2024-02-04T06:09:11.677Z,6.75
2024-02-04T06:12:14.482Z,6.20
2024-02-04T06:15:18.775Z,7.57
2024-02-04T06:18:21.640Z,6.78
2024-02-04T06:21:24.623Z,7.80
2024-02-04T06:24:27.553Z,6.55
2024-02-04T06:27:30.617Z,5.82
2024-02-04T06:30:34.877Z,6.28
2024-02-04T06:33:38.519Z,5.65
2024-02-04T06:36:45.154Z,5.57
2024-02-04T06:39:48.035Z,6.05
2024-02-04T06:42:50.900Z,6.03
2024-02-04T06:45:55.092Z,5.88
2024-02-04T06:48:58.209Z,7.55
2024-02-04T06:52:01.202Z,5.50
2024-02-04T06:55:04.304Z,5.50
2024-02-04T06:58:07.275Z,8.60
2024-02-04T07:01:12.538Z,5.93
2024-02-04T07:04:15.698Z,5.50
2024-02-04T07:07:18.695Z,5.30
2024-02-04T07:10:21.740Z,6.82
2024-02-04T07:13:24.547Z,6.65
2024-02-04T07:16:28.709Z,5.53
2024-02-04T07:19:31.593Z,6.20
2024-02-04T07:22:37.871Z,5.95
2024-02-04T07:25:41.157Z,6.20
2024-02-04T07:28:43.998Z,6.68
2024-02-04T07:31:48.199Z,5.45
2024-02-04T07:34:51.132Z,5.22
2024-02-04T07:37:54.040Z,6.32
2024-02-04T07:40:59.857Z,5.30
2024-02-04T07:44:02.650Z,5.05
2024-02-04T07:47:06.986Z,4.47
2024-02-04T07:50:11.068Z,4.70
2024-02-04T07:53:14.513Z,5.32
2024-02-04T07:56:17.388Z,5.63
2024-02-04T07:59:20.202Z,5.55
2024-02-04T08:02:24.326Z,5.03
2024-02-04T08:05:27.091Z,5.10
2024-02-04T08:08:29.878Z,4.80
2024-02-04T08:11:32.681Z,4.45
2024-02-04T08:14:35.470Z,6.30
2024-02-04T08:17:39.567Z,5.78
2024-02-04T08:20:42.643Z,4.72
2024-02-04T08:23:45.966Z,5.57
2024-02-04T08:26:49.057Z,4.88
2024-02-04T08:29:51.872Z,7.63
2024-02-04T08:32:56.114Z,4.85
2024-02-04T08:35:59.053Z,5.47
2024-02-04T08:39:01.841Z,4.88
2024-02-04T08:42:04.891Z,4.78
2024-02-04T08:45:08.722Z,4.45
2024-02-04T08:48:12.905Z,5.18
2024-02-04T08:51:17.323Z,6.47
2024-02-04T08:54:20.989Z,5.78
2024-02-04T08:57:23.895Z,4.75
2024-02-04T09:00:26.706Z,4.43
2024-02-04T09:03:32.006Z,4.40
2024-02-04T09:06:34.931Z,5.03
2024-02-04T09:09:38.389Z,5.15
2024-02-04T09:12:41.297Z,4.35
2024-02-04T09:15:44.268Z,3.97
2024-02-04T09:18:48.669Z,5.55
2024-02-04T09:21:51.623Z,8.20
2024-02-04T09:24:54.728Z,6.70
2024-02-04T09:27:57.658Z,6.40
2024-02-04T09:31:00.562Z,6.22
2024-02-04T09:34:05.140Z,7.38
2024-02-04T09:37:08.605Z,6.55
2024-02-04T09:40:13.178Z,6.95
2024-02-04T09:43:17.017Z,15.10
2024-02-04T09:46:20.439Z,11.68
2024-02-04T09:49:25.318Z,11.18
2024-02-04T09:52:31.589Z,10.48
2024-02-04T09:55:34.893Z,5.28
2024-02-04T09:58:37.964Z,4.93
2024-02-04T10:01:42.316Z,6.60
2024-02-04T10:04:46.659Z,5.25
2024-02-04T10:07:49.839Z,6.22
2024-02-04T10:10:53.040Z,5.93
2024-02-04T10:13:55.934Z,8.55
2024-02-04T10:16:58.953Z,4.88
2024-02-04T10:20:04.071Z,7.07
2024-02-04T10:23:07.072Z,5.63
2024-02-04T10:26:09.981Z,6.53
2024-02-04T10:29:12.796Z,8.63
2024-02-04T10:32:19.164Z,6.15
2024-02-04T10:35:27.066Z,6.57
2024-02-04T10:38:29.851Z,6.28
2024-02-04T10:41:36.038Z,8.00
2024-02-04T10:44:42.898Z,4.68
2024-02-04T10:47:53.496Z,10.27
2024-02-04T10:51:00.909Z,10.88
2024-02-04T10:54:05.213Z,4.38
2024-02-04T10:57:15.043Z,6.28
2024-02-04T11:00:19.884Z,5.32
2024-02-04T11:03:28.479Z,8.27
2024-02-04T11:06:34.341Z,5.65
2024-02-04T11:09:37.996Z,9.48
2024-02-04T11:12:43.654Z,5.88
2024-02-04T11:15:47.036Z,6.45
2024-02-04T11:19:10.350Z,4.40
2024-02-04T11:22:32.474Z,5.30
2024-02-04T11:25:45.573Z,9.68
2024-02-04T11:28:48.665Z,5.00
2024-02-04T11:31:51.809Z,5.78
2024-02-04T11:34:57.145Z,6.38
2024-02-04T11:38:01.657Z,5.70
2024-02-04T11:41:05.013Z,5.28
2024-02-04T11:44:10.851Z,5.22
2024-02-04T11:47:14.246Z,5.68
2024-02-04T11:50:31.781Z,5.15
2024-02-04T11:53:36.522Z,5.82
2024-02-04T11:56:39.664Z,3.30
2024-02-04T11:59:42.732Z,3.33
2024-02-04T12:02:45.568Z,3.88
2024-02-04T12:05:48.810Z,4.05
2024-02-04T12:08:53.114Z,6.63
2024-02-04T12:11:56.734Z,6.55
2024-02-04T12:15:00.133Z,4.65
2024-02-04T12:18:08.224Z,6.75
2024-02-04T12:21:11.232Z,3.88
2024-02-04T12:24:16.582Z,3.13
2024-02-04T12:27:19.379Z,4.43
2024-02-04T12:30:22.455Z,3.40
2024-02-04T12:33:25.346Z,2.88
2024-02-04T12:36:28.679Z,2.30
2024-02-04T12:39:34.585Z,7.05
2024-02-04T12:42:37.708Z,3.33
2024-02-04T12:45:40.797Z,5.78
2024-02-04T12:48:43.766Z,3.45
2024-02-04T12:51:46.639Z,3.05
2024-02-04T12:54:51.676Z,3.97
2024-02-04T12:58:04.972Z,3.50
2024-02-04T13:01:07.981Z,3.22
2024-02-04T13:04:11.056Z,3.50
2024-02-04T13:07:17.836Z,4.10
2024-02-04T13:10:22.265Z,3.10
2024-02-04T13:13:28.056Z,2.42
2024-02-04T13:16:31.569Z,2.25
2024-02-04T13:19:35.619Z,2.58
2024-02-04T13:22:38.523Z,4.50
2024-02-04T13:25:42.809Z,3.67
2024-02-04T13:28:45.711Z,2.85
2024-02-04T13:31:48.634Z,3.78
2024-02-04T13:34:59.877Z,3.72
2024-02-04T13:38:09.989Z,3.00
2024-02-04T13:41:14.182Z,3.92
2024-02-04T13:44:17.013Z,2.63
2024-02-04T13:47:19.852Z,2.58
2024-02-04T13:50:22.917Z,3.70
2024-02-04T13:53:25.818Z,3.80
2024-02-04T13:56:30.980Z,2.00
2024-02-04T13:59:33.753Z,2.10
2024-02-04T14:02:36.750Z,3.38
2024-02-04T14:05:40.668Z,4.35
2024-02-04T14:08:43.436Z,2.60
2024-02-04T14:11:48.061Z,2.15
2024-02-04T14:14:50.890Z,2.92
2024-02-04T14:17:53.924Z,2.88
2024-02-04T14:20:56.725Z,2.20
2024-02-04T14:23:59.529Z,2.95
2024-02-04T14:27:03.956Z,2.83
2024-02-04T14:30:08.131Z,3.60
2024-02-04T14:33:11.014Z,3.03
2024-02-04T14:36:13.842Z,3.72
2024-02-04T14:39:17.068Z,3.95
2024-02-04T14:42:21.286Z,5.07
2024-02-04T14:45:24.514Z,3.13
2024-02-04T14:48:27.440Z,1.90
2024-02-04T14:51:31.783Z,2.38
2024-02-04T14:54:34.734Z,9.40
2024-02-04T14:57:38.912Z,10.05
2024-02-04T15:00:41.973Z,6.13
2024-02-04T15:03:44.979Z,3.00
2024-02-04T15:06:48.264Z,4.47
2024-02-04T15:09:54.749Z,4.53
2024-02-04T15:12:59.755Z,4.10
2024-02-04T15:16:03.633Z,3.42
2024-02-04T15:19:20.933Z,3.67
2024-02-04T15:22:24.708Z,4.07
2024-02-04T15:25:28.409Z,4.45
2024-02-04T15:28:33.168Z,10.52
2024-02-04T15:31:37.175Z,2.60
2024-02-04T15:34:40.683Z,5.03
2024-02-04T15:37:43.580Z,13.15
2024-02-04T15:40:46.543Z,3.08
2024-02-04T15:43:50.794Z,6.07
2024-02-04T15:46:55.206Z,4.72
2024-02-04T15:49:58.738Z,7.45
2024-02-04T15:53:02.230Z,6.28
2024-02-04T15:56:08.868Z,3.08
2024-02-04T15:59:14.989Z,6.38
2024-02-04T16:02:18.632Z,9.50
2024-02-04T16:05:23.039Z,10.55
2024-02-04T16:08:26.582Z,4.40
2024-02-04T16:11:38.209Z,6.47
2024-02-04T16:14:46.658Z,5.53
2024-02-04T16:17:50.872Z,9.07
2024-02-04T16:20:53.744Z,3.22
2024-02-04T16:23:56.841Z,3.22
2024-02-04T16:27:00.050Z,4.10
2024-02-04T16:30:05.394Z,7.22
2024-02-04T16:33:08.253Z,10.13
2024-02-04T16:36:11.163Z,3.72
2024-02-04T16:39:15.222Z,3.03
2024-02-04T16:42:18.009Z,4.40
2024-02-04T16:45:22.390Z,3.38
2024-02-04T16:48:25.415Z,5.75
2024-02-04T16:51:28.201Z,5.95
2024-02-04T16:54:31.103Z,4.93
2024-02-04T16:57:34.051Z,4.32
2024-02-04T17:00:38.950Z,6.90
2024-02-04T17:03:42.228Z,4.50
2024-02-04T17:06:45.646Z,5.15
2024-02-04T17:09:51.175Z,5.20
2024-02-04T17:12:54.657Z,2.35
2024-02-04T17:15:59.916Z,5.38
2024-02-04T17:19:09.296Z,3.83
2024-02-04T17:22:15.970Z,3.95
2024-02-04T17:25:20.696Z,3.67
2024-02-04T17:28:24.208Z,3.55
2024-02-04T17:31:29.119Z,2.70
2024-02-04T17:34:32.642Z,3.25
2024-02-04T17:37:36.891Z,6.32
2024-02-04T17:40:39.687Z,2.85
2024-02-04T17:43:42.471Z,2.15
2024-02-04T17:46:47.639Z,2.33
2024-02-04T17:49:50.555Z,2.60
2024-02-04T17:52:53.518Z,2.40
2024-02-04T17:55:56.277Z,2.92
2024-02-04T17:58:59.077Z,6.05
2024-02-04T18:02:03.427Z,3.30
2024-02-04T18:05:07.144Z,1.75
2024-02-04T18:08:10.223Z,5.32
2024-02-04T18:11:19.498Z,1.70
2024-02-04T18:14:22.454Z,3.25
2024-02-04T18:17:27.948Z,3.53
2024-02-04T18:20:31.545Z,2.13
2024-02-04T18:23:34.340Z,3.25
2024-02-04T18:26:37.338Z,2.15
2024-02-04T18:29:41.388Z,1.48
2024-02-04T18:32:45.586Z,3.00
2024-02-04T18:35:48.388Z,2.22
2024-02-04T18:38:51.404Z,1.83
2024-02-04T18:41:54.213Z,4.95
2024-02-04T18:44:57.027Z,1.52
2024-02-04T18:48:01.301Z,1.77
2024-02-04T18:51:04.431Z,1.23
2024-02-04T18:54:07.216Z,1.25
2024-02-04T18:57:10.109Z,3.17
2024-02-04T19:00:14.151Z,2.85
2024-02-04T19:03:18.307Z,1.98
2024-02-04T19:06:27.634Z,1.85
2024-02-04T19:09:30.716Z,1.40
2024-02-04T19:12:33.593Z,1.23
2024-02-04T19:15:37.467Z,2.42
2024-02-04T19:18:41.629Z,1.40
2024-02-04T19:21:45.562Z,1.77
2024-02-04T19:24:48.447Z,5.18
2024-02-04T19:27:52.630Z,2.13
2024-02-04T19:30:55.392Z,1.63
2024-02-04T19:33:59.616Z,3.83
2024-02-04T19:37:02.479Z,1.50
2024-02-04T19:40:06.424Z,1.85
2024-02-04T19:43:09.357Z,2.13
2024-02-04T19:46:12.190Z,1.63
2024-02-04T19:49:16.516Z,1.95
2024-02-04T19:52:19.419Z,3.30
2024-02-04T19:55:22.772Z,2.28
2024-02-04T19:58:25.934Z,3.05
2024-02-04T20:01:28.841Z,2.20
2024-02-04T20:04:35.248Z,4.35
2024-02-04T20:07:38.244Z,3.10
2024-02-04T20:10:41.232Z,1.55
2024-02-04T20:13:44.378Z,6.00
2024-02-04T20:16:47.272Z,2.15
2024-02-04T20:19:52.582Z,2.90
2024-02-04T20:22:57.442Z,2.55
2024-02-04T20:26:00.570Z,3.70
2024-02-04T20:29:04.015Z,8.25
2024-02-04T20:32:07.259Z,12.35
2024-02-04T20:35:12.074Z,22.30
2024-02-04T20:38:16.500Z,17.00
2024-02-04T20:41:20.422Z,17.52
2024-02-04T20:44:23.383Z,21.17
2024-02-04T20:47:26.177Z,19.27
2024-02-04T20:50:30.592Z,19.95
2024-02-04T20:53:35.756Z,18.98
2024-02-04T20:56:38.603Z,15.48
2024-02-04T20:59:41.555Z,15.63
2024-02-04T21:02:44.794Z,20.00
2024-02-04T21:05:49.029Z,16.98
2024-02-04T21:08:51.838Z,15.75
2024-02-04T21:11:54.723Z,14.30
2024-02-04T21:14:57.671Z,15.40
2024-02-04T21:18:00.567Z,16.38
2024-02-04T21:21:06.105Z,14.25
2024-02-04T21:24:09.128Z,18.33
2024-02-04T21:27:11.964Z,16.40
2024-02-04T21:30:15.222Z,12.90
2024-02-04T21:33:20.209Z,14.20
2024-02-04T21:36:24.462Z,14.32
2024-02-04T21:39:27.423Z,14.80
2024-02-04T21:42:30.478Z,11.20
2024-02-04T21:45:33.710Z,14.73
2024-02-04T21:48:36.741Z,17.10
2024-02-04T21:51:41.213Z,16.08
2024-02-04T21:54:44.202Z,13.63
2024-02-04T21:57:47.109Z,13.20
2024-02-04T22:00:50.253Z,10.70
2024-02-04T22:03:53.186Z,11.20
2024-02-04T22:06:57.576Z,13.57
2024-02-04T22:10:00.651Z,10.85
2024-02-04T22:13:03.621Z,11.68
2024-02-04T22:16:07.270Z,13.02
2024-02-04T22:19:10.533Z,15.02
2024-02-04T22:22:15.035Z,9.18
2024-02-04T22:25:25.662Z,8.90
2024-02-04T22:28:28.581Z,8.95
2024-02-04T22:31:32.462Z,10.38
2024-02-04T22:34:35.382Z,13.70
2024-02-04T22:37:39.647Z,7.63
2024-02-04T22:40:42.543Z,10.50
2024-02-04T22:43:45.444Z,11.55
2024-02-04T22:46:49.002Z,8.23
2024-02-04T22:49:53.855Z,10.52
2024-02-04T22:52:58.153Z,8.95
2024-02-04T22:56:01.202Z,9.77
2024-02-04T22:59:04.038Z,12.00
2024-02-04T23:02:07.831Z,8.27
2024-02-04T23:05:11.005Z,9.35
2024-02-04T23:08:15.775Z,11.02
2024-02-04T23:11:18.661Z,9.63
2024-02-04T23:14:21.474Z,10.38
2024-02-04T23:17:24.289Z,9.15
2024-02-04T23:20:27.209Z,8.55
2024-02-04T23:23:31.365Z,11.63
2024-02-04T23:26:34.425Z,11.32
2024-02-04T23:29:37.257Z,7.72
2024-02-04T23:32:40.134Z,11.70
2024-02-04T23:35:43.344Z,12.82
2024-02-04T23:38:47.945Z,9.35
2024-02-04T23:41:50.749Z,6.70
2024-02-04T23:44:53.587Z,15.05
2024-02-04T23:47:56.415Z,8.60
2024-02-04T23:50:59.223Z,7.00
2024-02-04T23:54:03.960Z,6.57
2024-02-04T23:57:06.949Z,6.90
